createdAt,value
2018-07-26T00:00:10.258Z,20.30
2018-07-26T00:02:38.446Z,20.87
2018-07-26T00:05:06.721Z,21.40
2018-07-26T00:07:35.309Z,22.07
2018-07-26T00:10:03.745Z,21.90
2018-07-26T00:12:31.943Z,20.57
2018-07-26T00:15:00.150Z,19.77
2018-07-26T00:17:28.331Z,24.17
2018-07-26T00:19:56.613Z,21.37
2018-07-26T00:22:24.821Z,22.13
2018-07-26T00:24:53.005Z,22.80
2018-07-26T00:27:21.213Z,20.37
2018-07-26T00:29:49.425Z,21.10
2018-07-26T00:32:17.609Z,21.90
2018-07-26T00:34:45.781Z,22.07
2018-07-26T00:37:14.061Z,21.87
2018-07-26T00:39:42.245Z,22.60
2018-07-26T00:42:10.492Z,23.70
2018-07-26T00:44:38.697Z,21.60
2018-07-26T00:47:06.870Z,23.83
2018-07-26T00:49:35.107Z,21.90
2018-07-26T00:52:03.300Z,22.90
2018-07-26T00:54:31.468Z,25.30
2018-07-26T00:56:59.650Z,22.80
2018-07-26T00:59:27.922Z,22.70
2018-07-26T01:01:56.186Z,22.63
2018-07-26T01:04:24.369Z,21.50
2018-07-26T01:06:52.566Z,23.07
2018-07-26T01:09:20.762Z,22.80
2018-07-26T01:11:48.942Z,21.60
2018-07-26T01:14:17.169Z,19.93
2018-07-26T01:16:45.354Z,19.60
2018-07-26T01:19:13.605Z,19.30
2018-07-26T01:21:41.793Z,18.83
2018-07-26T01:24:10.322Z,17.90
2018-07-26T01:26:38.498Z,19.00
2018-07-26T01:29:06.713Z,18.40
2018-07-26T01:31:34.909Z,19.63
2018-07-26T01:34:03.109Z,19.70
2018-07-26T01:36:31.304Z,19.73
2018-07-26T01:38:59.526Z,20.50
2018-07-26T01:41:27.714Z,19.27
2018-07-26T01:44:07.404Z,18.80
2018-07-26T01:46:35.576Z,18.30
2018-07-26T01:49:04.215Z,20.73
2018-07-26T01:51:32.499Z,20.17
2018-07-26T01:54:00.676Z,22.30
2018-07-26T01:56:28.863Z,20.53
2018-07-26T01:58:57.050Z,20.33
2018-07-26T02:01:25.266Z,23.00
2018-07-26T02:03:53.524Z,22.10
2018-07-26T02:06:21.724Z,22.00
2018-07-26T02:08:49.903Z,21.80
2018-07-26T02:11:18.131Z,20.37
2018-07-26T02:13:46.856Z,22.83
2018-07-26T02:16:15.120Z,22.40
2018-07-26T02:18:43.365Z,26.20
2018-07-26T02:21:11.650Z,27.80
2018-07-26T02:23:39.826Z,25.37
2018-07-26T02:26:08.038Z,26.90
2018-07-26T02:28:36.310Z,25.90
2018-07-26T02:31:05.379Z,25.87
2018-07-26T02:33:33.565Z,25.93
2018-07-26T02:36:01.759Z,25.57
2018-07-26T02:38:30.010Z,26.67
2018-07-26T02:40:58.201Z,27.27
2018-07-26T02:43:26.383Z,27.93
2018-07-26T02:45:54.681Z,29.17
2018-07-26T02:48:22.904Z,28.53
2018-07-26T02:50:51.065Z,27.30
2018-07-26T02:53:19.233Z,29.40
2018-07-26T02:55:47.398Z,27.00
2018-07-26T02:58:15.627Z,25.93
2018-07-26T03:00:43.797Z,24.80
2018-07-26T03:03:12.170Z,25.33
2018-07-26T03:05:40.464Z,25.73
2018-07-26T03:08:08.644Z,25.30
2018-07-26T03:10:36.810Z,25.67
2018-07-26T03:13:05.055Z,23.63
2018-07-26T03:15:33.347Z,25.07
2018-07-26T03:18:01.542Z,26.00
2018-07-26T03:20:29.814Z,39.13
2018-07-26T03:22:57.991Z,35.10
2018-07-26T03:25:26.477Z,34.73
2018-07-26T03:27:54.986Z,29.87
2018-07-26T03:30:23.274Z,25.77
2018-07-26T03:32:51.433Z,24.97
2018-07-26T03:35:20.281Z,26.90
2018-07-26T03:37:48.773Z,26.47
2018-07-26T03:40:16.947Z,25.97
2018-07-26T03:42:45.141Z,25.80
2018-07-26T03:45:13.405Z,24.50
2018-07-26T03:47:41.955Z,24.03
2018-07-26T03:50:10.132Z,24.70
2018-07-26T03:52:38.404Z,25.57
2018-07-26T03:55:06.609Z,22.93
2018-07-26T03:57:34.794Z,27.50
2018-07-26T04:00:03.005Z,26.60
2018-07-26T04:02:31.254Z,26.93
2018-07-26T04:04:59.454Z,27.35
2018-07-26T04:07:27.622Z,28.17
2018-07-26T04:09:55.820Z,26.27
2018-07-26T04:12:24.112Z,29.30
2018-07-26T04:14:52.282Z,25.70
2018-07-26T04:17:20.508Z,25.60
2018-07-26T04:19:48.686Z,26.70
2018-07-26T04:22:16.898Z,26.23
2018-07-26T04:24:45.178Z,26.87
2018-07-26T04:27:13.388Z,26.77
2018-07-26T04:29:41.558Z,26.27
2018-07-26T04:32:09.818Z,23.87
2018-07-26T04:34:37.998Z,24.50
2018-07-26T04:37:06.258Z,22.53
2018-07-26T04:39:34.529Z,24.93
2018-07-26T04:42:02.814Z,24.27
2018-07-26T04:44:31.076Z,24.00
2018-07-26T04:46:59.321Z,21.83
2018-07-26T04:49:27.554Z,24.43
2018-07-26T04:51:55.730Z,24.67
2018-07-26T04:54:23.989Z,25.30
2018-07-26T04:56:52.185Z,25.70
2018-07-26T04:59:20.364Z,23.43
2018-07-26T05:01:48.537Z,24.30
2018-07-26T05:04:16.717Z,25.00
2018-07-26T05:06:44.915Z,24.17
2018-07-26T05:09:13.544Z,23.87
2018-07-26T05:11:41.879Z,22.83
2018-07-26T05:14:10.077Z,21.20
2018-07-26T05:16:38.282Z,22.40
2018-07-26T05:19:06.605Z,20.90
2018-07-26T05:21:34.729Z,20.20
2018-07-26T05:24:02.909Z,19.87
2018-07-26T05:26:31.176Z,18.87
2018-07-26T05:28:59.359Z,19.00
2018-07-26T05:31:27.537Z,19.90
2018-07-26T05:33:55.801Z,21.93
2018-07-26T05:36:23.986Z,20.20
2018-07-26T05:38:52.186Z,20.20
2018-07-26T05:41:20.427Z,17.83
2018-07-26T05:43:48.604Z,18.70
2018-07-26T05:46:16.856Z,17.30
2018-07-26T05:48:45.200Z,17.47
2018-07-26T05:51:13.325Z,15.37
2018-07-26T05:53:41.502Z,16.80
2018-07-26T05:56:09.813Z,12.60
2018-07-26T05:58:38.142Z,7.87
2018-07-26T06:01:06.646Z,7.07
2018-07-26T06:03:34.962Z,6.83
2018-07-26T06:06:03.176Z,5.70
2018-07-26T06:08:31.330Z,5.93
2018-07-26T06:10:59.507Z,5.63
2018-07-26T06:13:27.677Z,5.87
2018-07-26T06:15:55.849Z,5.30
2018-07-26T06:18:24.067Z,5.93
2018-07-26T06:20:52.229Z,5.37
2018-07-26T06:23:20.409Z,5.70
2018-07-26T06:25:48.589Z,7.00
2018-07-26T06:28:16.859Z,5.97
2018-07-26T06:30:45.017Z,5.33
2018-07-26T06:33:13.201Z,6.80
2018-07-26T06:35:41.372Z,5.73
2018-07-26T06:38:09.545Z,6.27
2018-07-26T06:40:37.732Z,6.43
2018-07-26T06:43:06.199Z,5.90
2018-07-26T06:45:34.366Z,6.40
2018-07-26T06:48:02.802Z,6.63
2018-07-26T06:50:30.962Z,6.33
2018-07-26T06:52:59.197Z,5.97
2018-07-26T06:55:27.370Z,5.60
2018-07-26T06:57:55.538Z,5.60
2018-07-26T07:00:23.740Z,5.80
2018-07-26T07:02:51.954Z,6.30
2018-07-26T07:05:20.114Z,6.20
2018-07-26T07:07:48.267Z,6.13
2018-07-26T07:10:16.478Z,5.60
2018-07-26T07:12:45.044Z,6.00
2018-07-26T07:15:13.214Z,5.43
2018-07-26T07:17:41.461Z,6.03
2018-07-26T07:20:10.136Z,6.57
2018-07-26T07:22:38.313Z,5.43
2018-07-26T07:25:06.945Z,5.83
2018-07-26T07:27:35.489Z,6.13
2018-07-26T07:30:04.261Z,5.20
2018-07-26T07:32:32.439Z,5.70
2018-07-26T07:35:00.711Z,5.77
2018-07-26T07:37:28.877Z,6.00
2018-07-26T07:39:57.060Z,6.30
2018-07-26T07:42:25.553Z,5.67
2018-07-26T07:44:53.728Z,5.37
2018-07-26T07:47:21.970Z,6.00
2018-07-26T07:49:50.098Z,5.00
2018-07-26T07:52:18.337Z,5.30
2018-07-26T07:54:48.707Z,4.90
2018-07-26T07:57:16.867Z,4.67
2018-07-26T07:59:45.064Z,5.30
2018-07-26T08:02:13.234Z,4.70
2018-07-26T08:04:41.480Z,5.20
2018-07-26T08:07:09.656Z,5.10
2018-07-26T08:09:37.920Z,4.40
2018-07-26T08:12:06.598Z,5.93
2018-07-26T08:14:34.757Z,4.63
2018-07-26T08:17:02.945Z,4.70
2018-07-26T08:19:31.106Z,4.60
2018-07-26T08:21:59.298Z,4.63
2018-07-26T08:24:27.497Z,5.00
2018-07-26T08:26:55.749Z,6.03
2018-07-26T08:29:24.080Z,4.87
2018-07-26T08:31:52.257Z,5.87
2018-07-26T08:34:20.467Z,4.77
2018-07-26T08:36:48.631Z,4.57
2018-07-26T08:39:16.804Z,4.20
2018-07-26T08:41:44.974Z,4.60
2018-07-26T08:44:13.224Z,4.20
2018-07-26T08:46:41.409Z,4.57
2018-07-26T08:49:09.602Z,4.47
2018-07-26T08:51:37.798Z,4.50
2018-07-26T08:54:06.477Z,4.57
2018-07-26T08:56:34.638Z,4.40
2018-07-26T08:59:02.826Z,4.53
2018-07-26T09:01:31.002Z,3.97
2018-07-26T09:03:59.258Z,4.33
2018-07-26T09:06:27.516Z,4.60
2018-07-26T09:08:55.734Z,4.50
2018-07-26T09:11:23.903Z,4.27
2018-07-26T09:13:52.199Z,4.70
2018-07-26T09:16:20.325Z,4.93
2018-07-26T09:18:48.485Z,4.40
2018-07-26T09:21:16.681Z,4.77
2018-07-26T09:23:44.865Z,4.80
2018-07-26T09:26:13.130Z,4.53
2018-07-26T09:28:41.532Z,4.63
2018-07-26T09:31:09.809Z,4.77
2018-07-26T09:33:37.986Z,4.70
2018-07-26T09:36:06.235Z,4.27
2018-07-26T09:38:35.141Z,4.30
2018-07-26T09:41:03.490Z,4.57
2018-07-26T09:43:31.682Z,4.63
2018-07-26T09:45:59.865Z,4.30
2018-07-26T09:48:28.133Z,4.70
2018-07-26T09:50:56.346Z,4.50
2018-07-26T09:53:24.597Z,5.23
2018-07-26T09:55:53.131Z,5.10
2018-07-26T09:58:21.301Z,5.07
2018-07-26T10:00:54.865Z,4.73
2018-07-26T10:03:23.105Z,4.83
2018-07-26T10:05:51.353Z,4.80
2018-07-26T10:08:19.667Z,4.43
2018-07-26T10:10:48.034Z,4.53
2018-07-26T10:13:16.205Z,4.30
2018-07-26T10:15:44.429Z,4.97
2018-07-26T10:18:12.589Z,5.07
2018-07-26T10:20:40.783Z,5.07
2018-07-26T10:23:09.240Z,5.07
2018-07-26T10:25:37.750Z,4.93
2018-07-26T10:28:06.329Z,4.43
2018-07-26T10:30:34.537Z,4.60
2018-07-26T10:33:02.783Z,4.10
2018-07-26T10:35:31.001Z,4.62
2018-07-26T10:37:59.450Z,4.77
2018-07-26T10:40:27.849Z,4.30
2018-07-26T10:42:56.038Z,4.67
2018-07-26T10:45:24.241Z,5.53
2018-07-26T10:47:52.755Z,4.67
2018-07-26T10:50:20.937Z,4.40
2018-07-26T10:52:49.140Z,4.90
2018-07-26T10:55:17.331Z,4.57
2018-07-26T10:57:45.499Z,5.50
2018-07-26T11:00:13.838Z,4.00
2018-07-26T11:02:42.042Z,5.60
2018-07-26T11:05:10.582Z,4.20
2018-07-26T11:07:39.321Z,4.53
2018-07-26T11:10:09.239Z,4.80
2018-07-26T11:12:37.547Z,4.90
2018-07-26T11:15:09.123Z,4.40
2018-07-26T11:17:37.229Z,4.80
2018-07-26T11:20:05.506Z,4.83
2018-07-26T11:22:33.686Z,4.70
2018-07-26T11:25:01.886Z,5.30
2018-07-26T11:27:30.062Z,4.47
2018-07-26T11:29:58.307Z,5.20
2018-07-26T11:32:26.519Z,4.87
2018-07-26T11:34:54.669Z,5.17
2018-07-26T11:37:23.046Z,4.43
2018-07-26T11:39:51.363Z,4.80
2018-07-26T11:42:19.529Z,4.53
2018-07-26T11:44:47.734Z,4.23
2018-07-26T11:47:16.655Z,4.67
2018-07-26T11:49:44.813Z,5.20
2018-07-26T11:52:13.147Z,4.87
2018-07-26T11:54:42.069Z,5.60
2018-07-26T11:57:10.545Z,5.07
2018-07-26T11:59:38.755Z,4.50
2018-07-26T12:02:07.129Z,4.83
2018-07-26T12:04:35.297Z,4.63
2018-07-26T12:07:03.483Z,5.40
2018-07-26T12:09:31.659Z,5.10
2018-07-26T12:11:59.918Z,5.50
2018-07-26T12:14:28.185Z,4.70
2018-07-26T12:16:56.392Z,5.23
2018-07-26T12:19:24.562Z,4.80
2018-07-26T12:21:52.825Z,4.53
2018-07-26T12:24:21.004Z,4.57
2018-07-26T12:26:49.577Z,4.37
2018-07-26T12:29:17.761Z,5.93
2018-07-26T12:31:46.026Z,4.70
2018-07-26T12:34:14.573Z,5.30
2018-07-26T12:36:42.857Z,4.83
2018-07-26T12:39:12.541Z,5.20
2018-07-26T12:41:40.770Z,4.97
2018-07-26T12:44:09.137Z,4.60
2018-07-26T12:46:37.325Z,5.00
2018-07-26T12:49:05.565Z,4.30
2018-07-26T12:51:34.043Z,3.83
2018-07-26T12:54:02.274Z,4.35
2018-07-26T12:56:30.692Z,3.77
2018-07-26T12:58:58.965Z,4.20
2018-07-26T13:01:27.983Z,4.30
2018-07-26T13:03:56.992Z,4.65
2018-07-26T13:06:25.287Z,4.60
2018-07-26T13:08:54.060Z,4.65
2018-07-26T13:11:22.254Z,4.22
2018-07-26T13:13:50.534Z,4.25
2018-07-26T13:16:18.885Z,4.28
2018-07-26T13:18:47.082Z,4.15
2018-07-26T13:21:15.254Z,4.08
2018-07-26T13:23:43.513Z,4.00
2018-07-26T13:26:12.001Z,4.30
2018-07-26T13:28:40.174Z,4.30
2018-07-26T13:31:08.338Z,4.42
2018-07-26T13:33:36.610Z,4.42
2018-07-26T13:36:04.805Z,4.58
2018-07-26T13:38:33.065Z,4.45
2018-07-26T13:41:01.225Z,5.17
2018-07-26T13:43:29.428Z,4.58
2018-07-26T13:45:57.605Z,4.53
2018-07-26T13:48:26.081Z,4.50
2018-07-26T13:50:54.375Z,4.53
2018-07-26T13:53:22.661Z,4.95
2018-07-26T13:55:50.907Z,4.33
2018-07-26T13:58:19.327Z,4.78
2018-07-26T14:00:47.513Z,4.53
2018-07-26T14:03:15.666Z,4.30
2018-07-26T14:05:43.949Z,4.70
2018-07-26T14:08:12.170Z,4.92
2018-07-26T14:10:40.327Z,4.30
2018-07-26T14:13:08.560Z,5.25
2018-07-26T14:15:36.852Z,4.30
2018-07-26T14:18:05.072Z,4.33
2018-07-26T14:20:33.262Z,4.33
2018-07-26T14:23:01.519Z,4.30
2018-07-26T14:25:29.698Z,4.63
2018-07-26T14:27:57.896Z,4.33
2018-07-26T14:30:26.074Z,4.78
2018-07-26T14:32:54.318Z,4.65
2018-07-26T14:35:22.514Z,3.73
2018-07-26T14:37:50.782Z,4.15
2018-07-26T14:40:18.981Z,4.15
2018-07-26T14:42:47.148Z,4.67
2018-07-26T14:45:15.314Z,4.20
2018-07-26T14:47:43.578Z,4.53
2018-07-26T14:50:11.776Z,4.40
2018-07-26T14:52:39.966Z,3.98
2018-07-26T14:55:08.189Z,4.53
2018-07-26T14:57:36.407Z,4.30
2018-07-26T15:00:05.686Z,4.00
2018-07-26T15:02:33.938Z,4.03
2018-07-26T15:05:02.234Z,4.35
2018-07-26T15:07:30.493Z,4.58
2018-07-26T15:09:58.669Z,17.27
2018-07-26T15:12:26.837Z,4.50
2018-07-26T15:14:54.993Z,4.45
2018-07-26T15:17:23.342Z,4.25
2018-07-26T15:19:51.569Z,5.15
2018-07-26T15:22:19.742Z,4.30
2018-07-26T15:24:47.912Z,4.22
2018-07-26T15:27:16.120Z,3.92
2018-07-26T15:29:44.359Z,3.60
2018-07-26T15:32:12.526Z,3.75
2018-07-26T15:34:40.722Z,4.03
2018-07-26T15:37:08.898Z,20.95
2018-07-26T15:39:37.163Z,7.03
2018-07-26T15:42:05.450Z,4.40
2018-07-26T15:44:33.833Z,4.63
2018-07-26T15:47:02.141Z,4.87
2018-07-26T15:49:30.400Z,11.23
2018-07-26T15:51:58.638Z,6.73
2018-07-26T15:54:27.568Z,5.93
2018-07-26T15:56:55.817Z,6.07
2018-07-26T15:59:24.085Z,6.30
2018-07-26T16:01:52.341Z,4.67
2018-07-26T16:04:20.550Z,4.70
2018-07-26T16:06:49.009Z,5.00
2018-07-26T16:09:17.297Z,4.27
2018-07-26T16:11:45.601Z,4.70
2018-07-26T16:14:13.850Z,4.50
2018-07-26T16:16:42.361Z,4.60
2018-07-26T16:19:10.921Z,4.57
2018-07-26T16:21:39.217Z,4.80
2018-07-26T16:24:07.477Z,4.77
2018-07-26T16:26:35.759Z,4.77
2018-07-26T16:29:04.334Z,4.40
2018-07-26T16:31:32.637Z,4.80
2018-07-26T16:34:00.922Z,4.27
2018-07-26T16:36:29.198Z,9.73
2018-07-26T16:38:57.378Z,9.53
2018-07-26T16:41:25.562Z,4.90
2018-07-26T16:43:53.733Z,4.80
2018-07-26T16:46:21.974Z,4.83
2018-07-26T16:48:50.249Z,4.57
2018-07-26T16:51:18.500Z,4.33
2018-07-26T16:53:46.769Z,4.03
2018-07-26T16:56:14.966Z,4.50
2018-07-26T16:58:43.238Z,4.37
2018-07-26T17:01:11.433Z,4.73
2018-07-26T17:03:39.625Z,4.50
2018-07-26T17:06:07.825Z,5.37
2018-07-26T17:08:36.125Z,4.50
2018-07-26T17:11:04.850Z,4.90
2018-07-26T17:13:33.126Z,4.37
2018-07-26T17:16:01.253Z,4.77
2018-07-26T18:19:11.996Z,5.40
2018-07-26T18:21:40.175Z,5.60
2018-07-26T18:24:08.366Z,5.43
2018-07-26T18:26:36.555Z,5.30
2018-07-26T18:29:04.840Z,5.60
2018-07-26T18:31:33.148Z,5.40
2018-07-26T18:34:01.347Z,10.90
2018-07-26T18:36:29.588Z,6.40
2018-07-26T18:38:57.786Z,6.33
2018-07-26T18:41:25.998Z,6.50
2018-07-26T18:43:54.288Z,6.10
2018-07-26T18:46:23.005Z,6.40
2018-07-26T18:48:51.172Z,7.07
2018-07-26T18:51:19.446Z,6.30
2018-07-26T18:53:47.654Z,6.50
2018-07-26T18:56:15.843Z,12.77
2018-07-26T18:58:44.066Z,8.57
2018-07-26T19:01:12.242Z,29.80
2018-07-26T19:03:40.433Z,7.43
2018-07-26T19:06:08.701Z,6.40
2018-07-26T19:08:37.143Z,6.70
2018-07-26T19:11:05.453Z,6.63
2018-07-26T19:13:33.667Z,8.57
2018-07-26T19:16:01.861Z,7.57
2018-07-26T19:18:30.137Z,14.17
2018-07-26T19:20:58.409Z,7.47
2018-07-26T19:23:26.683Z,6.10
2018-07-26T19:25:55.218Z,5.23
2018-07-26T19:28:23.473Z,5.60
2018-07-26T19:30:51.703Z,5.50
2018-07-26T19:33:19.937Z,6.13
2018-07-26T19:35:48.597Z,5.90
2018-07-26T19:38:16.895Z,5.47
2018-07-26T19:40:45.097Z,5.30
2018-07-26T19:43:13.919Z,5.57
2018-07-26T19:45:42.107Z,5.47
2018-07-26T19:48:10.443Z,5.20
2018-07-26T19:50:38.694Z,5.53
2018-07-26T19:53:06.890Z,9.27
2018-07-26T19:55:35.104Z,5.20
2018-07-26T19:58:03.347Z,5.57
2018-07-26T20:00:31.626Z,4.73
2018-07-26T20:02:59.798Z,5.70
2018-07-26T20:05:28.094Z,5.90
2018-07-26T20:07:56.630Z,5.50
2018-07-26T20:10:25.802Z,6.30
2018-07-26T20:12:54.000Z,6.10
2018-07-26T20:15:22.538Z,5.83
2018-07-26T20:17:50.742Z,5.50
2018-07-26T20:20:19.216Z,5.50
2018-07-26T20:22:47.434Z,5.10
2018-07-26T20:25:15.685Z,5.43
2018-07-26T20:27:44.154Z,4.73
2018-07-26T20:30:12.737Z,3.93
2018-07-26T20:32:40.947Z,4.47
2018-07-26T20:35:09.843Z,4.80
2018-07-26T20:37:38.182Z,4.43
2018-07-26T20:40:08.628Z,4.50
2018-07-26T20:42:37.087Z,4.70
2018-07-26T20:45:07.239Z,5.00
2018-07-26T20:47:35.546Z,4.20
2018-07-26T20:50:03.759Z,4.80
2018-07-26T20:52:32.210Z,5.83
2018-07-26T20:55:00.456Z,4.30
2018-07-26T20:57:28.733Z,6.07
2018-07-26T20:59:57.120Z,13.30
2018-07-26T21:02:25.452Z,8.93
2018-07-26T21:04:53.690Z,4.70
2018-07-26T21:07:22.059Z,4.60
2018-07-26T21:09:50.236Z,4.90
2018-07-26T21:12:18.500Z,4.90
2018-07-26T21:14:46.658Z,5.50
2018-07-26T21:17:14.850Z,4.80
2018-07-26T21:19:43.149Z,4.60
2018-07-26T21:22:11.381Z,4.40
2018-07-26T21:24:39.563Z,4.80
2018-07-26T21:27:07.745Z,5.10
2018-07-26T21:29:35.989Z,4.83
2018-07-26T21:32:04.174Z,4.87
2018-07-26T21:34:32.361Z,5.27
2018-07-26T21:37:00.522Z,5.50
2018-07-26T21:39:28.706Z,5.20
2018-07-26T21:41:56.993Z,5.00
2018-07-26T21:44:25.262Z,4.73
2018-07-26T21:46:53.433Z,5.07
2018-07-26T21:49:21.679Z,5.63
2018-07-26T21:51:49.893Z,5.43
2018-07-26T21:54:18.181Z,4.97
2018-07-26T21:56:46.433Z,4.93
2018-07-26T21:59:14.649Z,5.10
2018-07-26T22:01:42.905Z,4.80
2018-07-26T22:04:11.312Z,5.03
2018-07-26T22:06:39.538Z,5.10
2018-07-26T22:09:10.125Z,4.63
2018-07-26T22:11:38.319Z,4.63
2018-07-26T22:14:06.670Z,5.20
2018-07-26T22:16:34.867Z,5.03
2018-07-26T22:19:03.041Z,5.10
2018-07-26T22:21:31.262Z,4.77
2018-07-26T22:23:59.450Z,4.53
2018-07-26T22:26:27.859Z,5.10
2018-07-26T22:28:56.053Z,4.90
2018-07-26T22:31:24.213Z,4.60
2018-07-26T22:33:52.658Z,4.50
2018-07-26T22:36:20.829Z,7.80
2018-07-26T22:38:49.127Z,8.17
2018-07-26T22:41:17.294Z,5.77
2018-07-26T22:43:45.570Z,4.60
2018-07-26T22:46:14.867Z,4.10
2018-07-26T22:48:43.081Z,5.87
2018-07-26T22:51:11.377Z,4.83
2018-07-26T22:53:39.709Z,4.33
2018-07-26T22:56:07.935Z,5.17
2018-07-26T22:58:36.147Z,4.50
2018-07-26T23:01:04.326Z,4.90
2018-07-26T23:03:32.492Z,5.07
2018-07-26T23:06:00.736Z,4.37
2018-07-26T23:08:28.918Z,4.80
2018-07-26T23:10:57.182Z,5.10
2018-07-26T23:13:25.462Z,4.67
2018-07-26T23:15:53.743Z,5.30
2018-07-26T23:18:22.062Z,4.93
2018-07-26T23:20:50.252Z,4.63
2018-07-26T23:23:18.442Z,4.70
2018-07-26T23:25:46.640Z,5.23
2018-07-26T23:28:14.902Z,4.60
2018-07-26T23:30:43.093Z,4.80
2018-07-26T23:33:11.357Z,5.07
2018-07-26T23:35:39.839Z,5.03
2018-07-26T23:38:08.338Z,4.90
2018-07-26T23:40:36.597Z,5.53
2018-07-26T23:43:04.861Z,5.30
2018-07-26T23:45:33.061Z,5.23
2018-07-26T23:48:01.237Z,5.13
2018-07-26T23:50:29.401Z,4.97
2018-07-26T23:52:57.580Z,5.20
2018-07-26T23:55:26.049Z,5.70
2018-07-26T23:57:54.215Z,5.43
